createdAt,value
2022-08-17T00:04:24.042Z,13.98
2022-08-17T00:09:28.199Z,13.35
2022-08-17T00:14:32.154Z,14.05
2022-08-17T00:19:37.416Z,13.80
2022-08-17T00:29:45.580Z,13.35
2022-08-17T00:34:50.859Z,12.73
2022-08-17T00:39:54.811Z,14.63
2022-08-17T00:44:58.925Z,15.15
2022-08-17T00:50:05.357Z,15.43
2022-08-17T00:55:10.412Z,14.43
2022-08-17T01:00:21.441Z,14.95
2022-08-17T01:05:30.907Z,14.27
2022-08-17T01:10:58.797Z,15.85
2022-08-17T01:16:13.052Z,15.00
2022-08-17T01:21:23.815Z,15.15
2022-08-17T01:26:30.967Z,13.55
2022-08-17T01:31:38.786Z,13.73
2022-08-17T01:36:46.015Z,13.70
2022-08-17T01:41:55.966Z,14.15
2022-08-17T01:46:59.915Z,14.20
2022-08-17T01:52:08.739Z,14.43
2022-08-17T01:57:14.226Z,14.25
2022-08-17T02:02:30.406Z,14.82
2022-08-17T02:07:58.642Z,15.02
2022-08-17T02:13:02.478Z,13.55
2022-08-17T02:18:07.472Z,14.20
2022-08-17T02:23:14.957Z,14.57
2022-08-17T02:28:21.062Z,13.95
2022-08-17T02:33:25.240Z,14.55
2022-08-17T02:38:47.862Z,15.10
2022-08-17T02:43:54.262Z,14.60
2022-08-17T02:48:58.103Z,14.27
2022-08-17T02:54:40.445Z,13.55
2022-08-17T02:59:26.778Z,12.43
2022-08-17T03:04:30.987Z,14.25
2022-08-17T03:09:38.780Z,12.98
2022-08-17T03:14:44.949Z,12.85
2022-08-17T03:19:48.649Z,12.50
2022-08-17T03:24:52.769Z,12.60
2022-08-17T03:29:58.602Z,12.32
2022-08-17T03:35:02.355Z,13.02
2022-08-17T03:40:08.807Z,13.13
2022-08-17T03:45:16.883Z,12.55
2022-08-17T03:50:38.419Z,12.85
2022-08-17T03:55:59.395Z,13.18
2022-08-17T04:01:04.888Z,13.18
2022-08-17T04:06:09.091Z,11.77
2022-08-17T04:11:12.802Z,11.95
2022-08-17T04:16:17.774Z,12.55
2022-08-17T04:21:22.267Z,14.45
2022-08-17T04:26:54.082Z,13.83
2022-08-17T04:31:50.941Z,13.57
2022-08-17T04:36:54.525Z,16.08
2022-08-17T04:42:17.297Z,14.85
2022-08-17T04:47:22.510Z,15.00
2022-08-17T04:52:32.218Z,14.77
2022-08-17T04:57:47.264Z,15.60
2022-08-17T05:02:53.324Z,15.95
2022-08-17T05:08:00.081Z,17.70
2022-08-17T05:13:05.705Z,16.05
2022-08-17T05:18:10.953Z,15.50
2022-08-17T05:23:17.103Z,14.85
2022-08-17T05:28:24.232Z,17.10
2022-08-17T05:33:35.470Z,17.70
2022-08-17T05:38:39.865Z,15.40
2022-08-17T05:43:43.863Z,14.00
2022-08-17T05:48:51.107Z,15.90
2022-08-17T05:54:01.839Z,16.73
2022-08-17T05:59:12.461Z,16.35
2022-08-17T06:04:27.951Z,19.45
2022-08-17T06:14:58.924Z,19.58
2022-08-17T06:20:09.215Z,18.15
2022-08-17T06:25:16.801Z,17.77
2022-08-17T06:30:24.800Z,17.75
2022-08-17T06:35:35.696Z,17.48
2022-08-17T06:40:55.375Z,20.52
2022-08-17T06:46:04.636Z,18.38
2022-08-17T06:51:20.054Z,17.98
2022-08-17T06:56:54.800Z,18.48
2022-08-17T07:01:56.630Z,20.00
2022-08-17T07:07:25.171Z,16.40
2022-08-17T07:12:38.453Z,19.65
2022-08-17T07:17:47.209Z,16.98
2022-08-17T07:23:00.680Z,16.83
2022-08-17T07:28:07.821Z,15.73
2022-08-17T07:33:13.685Z,16.98
2022-08-17T07:38:24.731Z,15.20
2022-08-17T07:43:33.048Z,15.48
2022-08-17T07:48:39.830Z,16.13
2022-08-17T07:53:45.407Z,16.35
2022-08-17T07:58:49.229Z,16.00
2022-08-17T08:03:52.945Z,17.40
2022-08-17T08:09:00.600Z,15.70
2022-08-17T08:14:29.565Z,18.15
2022-08-17T08:19:35.506Z,14.52
2022-08-17T08:24:58.349Z,18.70
2022-08-17T08:30:07.776Z,19.80
2022-08-17T08:35:18.507Z,16.85
2022-08-17T08:40:36.352Z,17.23
2022-08-17T08:45:48.567Z,15.60
2022-08-17T08:51:01.161Z,13.40
2022-08-17T08:56:11.100Z,11.95
2022-08-17T09:01:22.080Z,14.18
2022-08-17T09:06:39.798Z,12.73
2022-08-17T09:12:01.423Z,12.57
2022-08-17T09:17:14.228Z,12.98
2022-08-17T09:22:34.937Z,12.45
2022-08-17T09:27:51.809Z,14.75
2022-08-17T09:32:59.973Z,15.70
2022-08-17T09:38:18.298Z,16.08
2022-08-17T09:43:31.759Z,16.23
2022-08-17T09:48:40.632Z,13.18
2022-08-17T09:53:44.949Z,14.18
2022-08-17T09:59:09.683Z,14.73
2022-08-17T10:04:30.680Z,19.08
2022-08-17T10:09:49.783Z,16.70
2022-08-17T10:15:14.704Z,14.88
2022-08-17T10:20:25.838Z,14.25
2022-08-17T10:25:55.122Z,14.48
2022-08-17T10:36:43.253Z,13.18
2022-08-17T10:41:53.090Z,13.18
2022-08-17T10:47:09.008Z,12.35
2022-08-17T10:52:46.002Z,14.18
2022-08-17T10:57:51.388Z,12.07
2022-08-17T11:02:57.984Z,9.98
2022-08-17T11:08:21.225Z,11.65
2022-08-17T11:13:35.536Z,10.43
2022-08-17T11:19:09.964Z,10.52
2022-08-17T11:24:23.216Z,10.10
2022-08-17T11:29:32.474Z,8.70
2022-08-17T11:34:44.669Z,10.27
2022-08-17T11:40:24.553Z,8.75
2022-08-17T11:45:46.550Z,8.55
2022-08-17T11:51:17.342Z,8.20
2022-08-17T11:56:34.182Z,6.72
2022-08-17T12:01:58.486Z,7.20
2022-08-17T12:07:11.516Z,6.45
2022-08-17T12:12:19.228Z,7.03
2022-08-17T12:17:40.658Z,6.95
2022-08-17T12:22:56.623Z,7.20
2022-08-17T12:28:06.540Z,7.00
2022-08-17T12:33:25.708Z,6.95
2022-08-17T12:38:36.261Z,7.18
2022-08-17T12:43:39.992Z,6.43
2022-08-17T12:48:59.157Z,6.93
2022-08-17T12:59:12.140Z,6.95
2022-08-17T13:04:17.539Z,6.65
2022-08-17T13:09:35.664Z,6.38
2022-08-17T13:14:47.781Z,6.45
2022-08-17T13:19:52.303Z,6.72
2022-08-17T13:24:58.520Z,6.78
2022-08-17T13:30:08.442Z,8.02
2022-08-17T13:35:39.266Z,6.53
2022-08-17T13:40:49.171Z,6.75
2022-08-17T13:45:54.531Z,6.82
2022-08-17T13:51:15.136Z,6.57
2022-08-17T13:56:44.764Z,6.45
2022-08-17T14:01:53.857Z,5.75
2022-08-17T14:07:29.823Z,6.65
2022-08-17T14:12:35.689Z,6.05
2022-08-17T14:17:40.861Z,6.40
2022-08-17T14:22:49.601Z,6.45
2022-08-17T14:27:58.321Z,6.43
2022-08-17T14:33:09.583Z,6.38
2022-08-17T14:38:15.168Z,6.60
2022-08-17T14:43:20.559Z,6.63
2022-08-17T14:48:38.357Z,6.55
2022-08-17T14:53:43.162Z,7.05
2022-08-17T14:58:54.525Z,7.22
2022-08-17T15:04:01.088Z,9.02
2022-08-17T15:09:04.939Z,8.95
2022-08-17T15:14:08.794Z,8.05
2022-08-17T15:19:14.502Z,8.03
2022-08-17T15:24:18.426Z,7.90
2022-08-17T15:29:22.698Z,8.47
2022-08-17T15:34:27.966Z,7.32
2022-08-17T15:39:31.699Z,7.47
2022-08-17T15:44:40.694Z,6.95
2022-08-17T15:49:46.823Z,7.05
2022-08-17T15:54:51.969Z,7.15
2022-08-17T15:59:58.659Z,8.00
2022-08-17T16:05:06.025Z,7.95
2022-08-17T16:10:18.697Z,7.70
2022-08-17T16:15:22.994Z,8.52
2022-08-17T16:20:30.669Z,7.00
2022-08-17T16:25:52.675Z,7.15
2022-08-17T16:30:58.600Z,7.95
2022-08-17T16:36:03.728Z,8.55
2022-08-17T16:41:08.230Z,9.23
2022-08-17T16:46:11.891Z,9.38
2022-08-17T16:51:17.022Z,8.00
2022-08-17T16:56:20.917Z,7.70
2022-08-17T17:01:26.530Z,8.93
2022-08-17T17:06:39.257Z,9.63
2022-08-17T17:11:45.910Z,9.95
2022-08-17T17:16:57.820Z,8.50
2022-08-17T17:22:09.856Z,9.30
2022-08-17T17:27:23.147Z,9.27
2022-08-17T17:32:32.260Z,9.98
2022-08-17T17:37:39.730Z,23.50
2022-08-17T17:42:45.521Z,14.60
2022-08-17T17:47:50.685Z,11.52
2022-08-17T17:53:03.159Z,10.00
2022-08-17T17:58:39.229Z,10.50
2022-08-17T18:04:33.220Z,9.30
2022-08-17T18:10:29.628Z,9.50
2022-08-17T18:16:09.198Z,9.88
2022-08-17T18:21:51.548Z,9.27
2022-08-17T18:27:44.349Z,10.10
2022-08-17T18:33:36.220Z,10.20
2022-08-17T18:39:26.287Z,9.70
2022-08-17T18:45:07.154Z,10.32
2022-08-17T18:50:53.403Z,9.88
2022-08-17T18:56:37.193Z,9.75
2022-08-17T19:02:45.168Z,10.23
2022-08-17T19:08:38.212Z,10.15
2022-08-17T19:14:20.161Z,9.57
2022-08-17T19:20:06.319Z,9.85
2022-08-17T19:25:46.179Z,10.20
2022-08-17T19:31:28.298Z,9.93
2022-08-17T19:36:54.396Z,9.55
2022-08-17T19:42:03.195Z,10.05
2022-08-17T19:47:30.743Z,10.32
2022-08-17T19:52:53.758Z,11.98
2022-08-17T19:58:06.076Z,11.63
2022-08-17T20:03:16.794Z,11.20
2022-08-17T20:08:28.944Z,10.57
2022-08-17T20:13:36.639Z,11.80
2022-08-17T20:18:50.751Z,10.90
2022-08-17T20:24:05.545Z,12.25
2022-08-17T20:29:40.118Z,11.40
2022-08-17T20:34:48.862Z,11.30
2022-08-17T20:40:26.372Z,12.07
2022-08-17T20:45:57.861Z,9.05
2022-08-17T20:51:16.438Z,10.55
2022-08-17T20:56:49.310Z,11.40
2022-08-17T21:02:18.542Z,10.55
2022-08-17T21:07:30.148Z,11.45
2022-08-17T21:12:44.319Z,11.25
2022-08-17T21:17:56.390Z,9.48
2022-08-17T21:23:19.042Z,12.55
2022-08-17T21:28:34.376Z,10.60
2022-08-17T21:33:39.687Z,9.30
2022-08-17T21:38:57.578Z,11.45
2022-08-17T21:44:14.114Z,10.82
2022-08-17T21:49:21.521Z,11.18
2022-08-17T21:54:31.987Z,12.25
2022-08-17T21:59:40.069Z,14.25
2022-08-17T22:04:44.836Z,13.20
2022-08-17T22:09:50.408Z,14.60
2022-08-17T22:20:09.239Z,13.52
2022-08-17T22:25:22.408Z,12.40
2022-08-17T22:30:34.686Z,13.80
2022-08-17T22:35:41.445Z,11.65
2022-08-17T22:40:49.832Z,12.68
2022-08-17T22:46:00.473Z,16.40
2022-08-17T22:51:13.366Z,14.95
2022-08-17T22:56:37.874Z,14.55
2022-08-17T23:01:45.448Z,14.55
2022-08-17T23:06:49.095Z,15.38
2022-08-17T23:11:58.997Z,15.55
2022-08-17T23:17:04.469Z,16.25
2022-08-17T23:22:11.432Z,15.35
2022-08-17T23:27:15.202Z,14.88
2022-08-17T23:32:22.291Z,11.13
2022-08-17T23:37:27.689Z,10.23
2022-08-17T23:47:36.196Z,13.40
2022-08-17T23:52:41.442Z,13.73
2022-08-17T23:57:45.054Z,14.00
